Terminal Aerodrome Forecast
Issued by NWS

Home | Current Version | Previous Version | Text Only | Print | Product List | Glossary On
Versions: 1 2 3 4 5 6 7 8 9 10 11 12 13 14 15 16 17 18 19
256
FTUS42 KILM 260915 AAC
TAFCRE
TAF AMD
KCRE 260915Z 2609/2706 00000KT 6SM BR SCT002
     FM261100 VRB04KT P6SM SCT005 BKN250
     FM261700 06009KT P6SM BKN130
     FM262300 10005KT P6SM SCT250=

USA.gov is the U.S. government's official web portal to all federal, state and local government web resources and services.